.
WxDataArchive / Data Records for 2007-11-07
2007-11-06 November 2007 2007-11-08

Data Records for Wednesday, 07 November 2007

Time	Temp	Chill	HIndex	Humid	Dewpt	 Wind 	HiWind	WindDir	Rain 	Barom 
-----	----	-----	------	-----	-----	------	------	-------	-----	----- 
00:00	38.5	38.5	38.5	81	33.2	0	1	248	0.00	30.201 
00:05	38.5	38.5	38.5	82	33.5	0	1	248	0.00	30.198 
00:10	38.3	38.3	38.3	83	33.6	0	0	---	0.00	30.199 
00:15	38.2	38.2	38.2	83	33.5	0	0	---	0.00	30.195 
00:20	38.2	38.2	38.2	84	33.8	0	0	---	0.00	30.194 
00:25	38.0	38.0	38.0	84	33.6	0	0	---	0.00	30.193 
00:30	37.9	37.9	37.9	84	33.5	0	0	---	0.00	30.192 
00:35	37.9	37.9	37.9	85	33.8	0	1	248	0.00	30.189 
00:40	37.8	37.8	37.8	85	33.7	0	0	---	0.00	30.191 
00:45	37.8	37.8	37.8	85	33.7	0	0	---	0.00	30.191 
00:50	37.6	37.6	37.6	85	33.5	0	0	---	0.00	30.193 
00:55	37.6	37.6	37.6	86	33.8	0	0	---	0.00	30.192 
01:00	37.6	37.6	37.6	86	33.8	0	0	---	0.00	30.191 
01:05	37.5	37.5	37.5	86	33.7	0	0	---	0.00	30.191 
01:10	37.5	37.5	37.5	86	33.7	0	0	---	0.00	30.191 
01:15	37.5	37.5	37.5	86	33.7	0	0	---	0.00	30.190 
01:20	37.3	37.3	37.3	86	33.5	0	0	---	0.00	30.191 
01:25	37.3	37.3	37.3	86	33.5	0	0	---	0.00	30.191 
01:30	37.3	37.3	37.3	87	33.8	0	0	---	0.00	30.190 
01:35	37.2	37.2	37.2	87	33.7	0	0	---	0.00	30.190 
01:40	37.2	37.2	37.2	87	33.7	0	0	---	0.00	30.190 
01:45	37.2	37.2	37.2	87	33.7	0	0	---	0.00	30.189 
01:50	37.0	37.0	37.0	88	33.8	0	0	---	0.00	30.191 
01:55	37.0	37.0	37.0	88	33.8	0	0	---	0.00	30.191 
02:00	37.0	37.0	37.0	87	33.5	0	0	---	0.00	30.192 
02:05	37.0	37.0	37.0	84	32.6	0	1	248	0.00	30.190 
02:10	37.5	37.5	37.5	79	31.6	0	1	248	0.00	30.192 
02:15	37.8	37.8	37.8	77	31.2	0	1	248	0.00	30.196 
02:20	37.8	37.8	37.8	77	31.2	1	3	270	0.00	30.199 
02:25	37.3	37.3	37.3	79	31.4	2	4	315	0.01	30.201 
02:30	36.8	36.8	36.8	81	31.5	1	3	315	0.00	30.200 
02:35	36.5	36.5	36.5	84	32.1	1	2	338	0.00	30.201 
02:40	36.3	36.3	36.3	84	31.9	0	2	338	0.00	30.204 
02:45	36.3	36.3	36.3	85	32.2	0	3	292	0.00	30.205 
02:50	36.5	36.5	36.5	86	32.7	0	2	315	0.00	30.203 
02:55	36.5	36.5	36.5	86	32.7	0	1	315	0.00	30.203 
03:00	36.5	36.5	36.5	86	32.7	0	2	315	0.00	30.203 
03:05	36.5	36.5	36.5	86	32.7	0	2	315	0.00	30.205 
03:10	36.3	36.3	36.3	87	32.8	0	2	315	0.00	30.204 
03:15	36.3	36.3	36.3	87	32.8	0	2	315	0.00	30.204 
03:20	36.3	36.3	36.3	87	32.8	0	2	315	0.01	30.204 
03:25	36.2	36.2	36.2	88	33.0	0	1	315	0.00	30.205 
03:30	36.2	36.2	36.2	88	33.0	0	1	315	0.00	30.202 
03:35	36.2	36.2	36.2	88	33.0	0	2	292	0.00	30.202 
03:40	36.0	36.0	36.0	88	32.8	0	1	292	0.00	30.205 
03:45	36.0	36.0	36.0	88	32.8	0	1	292	0.00	30.207 
03:50	36.0	36.0	36.0	89	33.1	0	1	292	0.00	30.207 
03:55	36.0	36.0	36.0	89	33.1	0	1	292	0.00	30.208 
04:00	36.0	36.0	36.0	89	33.1	0	1	292	0.00	30.207 
04:05	36.0	36.0	36.0	89	33.1	0	1	292	0.00	30.207 
04:10	36.0	36.0	36.0	89	33.1	0	1	292	0.00	30.207 
04:15	35.9	35.9	35.9	89	33.0	0	1	292	0.00	30.207 
04:20	35.9	35.9	35.9	89	33.0	0	2	292	0.00	30.209 
04:25	35.9	35.9	35.9	89	33.0	0	1	292	0.00	30.210 
04:30	35.8	35.8	35.8	89	32.9	0	1	292	0.00	30.211 
04:35	35.6	35.6	35.6	89	32.7	0	2	292	0.00	30.215 
04:40	35.6	35.6	35.6	89	32.7	0	1	292	0.00	30.218 
04:45	35.6	35.6	35.6	89	32.7	0	1	292	0.00	30.219 
04:50	35.6	35.6	35.6	89	32.7	0	2	292	0.00	30.219 
04:55	35.6	35.6	35.6	89	32.7	0	3	225	0.00	30.220 
05:00	35.6	35.6	35.6	89	32.7	0	1	248	0.00	30.221 
05:05	35.5	35.5	35.5	89	32.6	0	2	248	0.00	30.224 
05:10	35.5	35.5	35.5	88	32.3	0	1	248	0.00	30.224 
05:15	35.5	35.5	35.5	88	32.3	0	1	248	0.00	30.226 
05:20	35.5	35.5	35.5	89	32.6	0	1	248	0.00	30.227 
05:25	35.5	35.5	35.5	89	32.6	0	1	248	0.00	30.228 
05:30	35.5	35.5	35.5	89	32.6	0	1	248	0.00	30.227 
05:35	35.5	35.5	35.5	90	32.9	0	1	248	0.00	30.230 
05:40	35.5	35.5	35.5	90	32.9	0	1	248	0.00	30.231 
05:45	35.3	35.3	35.3	90	32.7	0	1	248	0.00	30.233 
05:50	35.2	35.2	35.2	90	32.6	0	1	248	0.00	30.234 
05:55	35.2	35.2	35.2	90	32.6	0	1	248	0.00	30.235 
06:00	35.2	35.2	35.2	90	32.6	0	1	248	0.00	30.235 
06:05	35.3	35.3	35.3	91	32.9	0	1	248	0.00	30.238 
06:10	35.3	35.3	35.3	91	32.9	0	1	248	0.00	30.239 
06:15	35.3	35.3	35.3	91	32.9	0	1	248	0.00	30.240 
06:20	35.3	35.3	35.3	91	32.9	0	1	248	0.00	30.241 
06:25	35.5	35.5	35.5	90	32.9	0	1	248	0.00	30.244 
06:30	35.5	35.5	35.5	90	32.9	0	0	---	0.00	30.247 
06:35	35.5	35.5	35.5	90	32.9	0	1	248	0.00	30.249 
06:40	35.3	35.3	35.3	90	32.7	0	1	248	0.00	30.249 
06:45	35.3	35.3	35.3	90	32.7	0	1	248	0.00	30.254 
06:50	35.5	35.5	35.5	89	32.6	0	1	248	0.00	30.255 
06:55	35.5	35.5	35.5	89	32.6	0	1	248	0.00	30.256 
07:00	35.5	35.5	35.5	89	32.6	0	1	248	0.00	30.256 
07:05	35.5	35.5	35.5	89	32.6	0	1	248	0.00	30.257 
07:10	35.5	35.5	35.5	89	32.6	0	1	248	0.00	30.258 
07:15	35.5	35.5	35.5	89	32.6	0	1	248	0.00	30.259 
07:20	35.5	35.5	35.5	89	32.6	0	1	248	0.00	30.261 
07:25	35.5	35.5	35.5	89	32.6	0	1	248	0.00	30.261 
07:30	35.5	35.5	35.5	89	32.6	0	1	248	0.00	30.264 
07:35	35.5	35.5	35.5	90	32.9	0	1	248	0.00	30.265 
07:40	35.5	35.5	35.5	90	32.9	0	1	248	0.00	30.268 
07:45	35.5	35.5	35.5	90	32.9	0	1	248	0.00	30.268 
07:50	35.6	35.6	35.6	90	33.0	0	1	248	0.00	30.270 
07:55	35.6	35.6	35.6	90	33.0	0	1	248	0.00	30.270 
08:00	35.6	35.6	35.6	90	33.0	0	1	248	0.00	30.271 
08:05	35.8	35.8	35.8	89	32.9	0	1	248	0.00	30.272 
08:10	35.8	35.8	35.8	89	32.9	0	1	248	0.00	30.273 
08:15	35.8	35.8	35.8	89	32.9	0	1	248	0.00	30.272 
08:20	35.9	35.9	35.9	89	33.0	0	1	248	0.00	30.272 
08:25	35.9	35.9	35.9	88	32.7	0	1	248	0.00	30.277 
08:30	36.0	36.0	36.0	88	32.8	0	1	248	0.00	30.282 
08:35	36.2	36.2	36.2	88	33.0	0	2	248	0.00	30.282 
08:40	36.2	36.2	36.2	88	33.0	0	1	248	0.00	30.283 
08:45	36.3	36.3	36.3	87	32.8	1	2	248	0.00	30.285 
08:50	36.5	36.5	36.5	87	33.0	0	1	248	0.00	30.282 
08:55	36.6	36.6	36.6	87	33.1	0	1	248	0.00	30.283 
09:00	36.8	36.8	36.8	87	33.3	0	1	248	0.00	30.283 
09:05	36.9	36.9	36.9	87	33.4	0	2	248	0.00	30.280 
09:10	37.0	37.0	37.0	86	33.2	1	3	248	0.00	30.282 
09:15	37.0	37.0	37.0	85	32.9	0	3	248	0.00	30.282 
09:20	37.2	37.2	37.2	85	33.1	1	3	248	0.00	30.282 
09:25	37.3	37.3	37.3	85	33.2	0	1	248	0.00	30.283 
09:30	37.3	37.3	37.3	84	32.9	0	1	248	0.00	30.281 
09:35	37.5	37.5	37.5	84	33.1	0	1	248	0.00	30.282 
09:40	37.6	37.6	37.6	84	33.2	0	1	248	0.00	30.281 
09:45	37.8	37.8	37.8	83	33.1	0	1	248	0.00	30.281 
09:50	37.9	37.9	37.9	82	32.9	1	2	248	0.00	30.279 
09:55	38.0	38.0	38.0	81	32.7	0	1	248	0.00	30.277 
10:00	38.3	38.3	38.3	82	33.3	0	1	248	0.00	30.275 
10:05	38.5	38.5	38.5	80	32.9	0	1	270	0.00	30.275 
10:10	38.5	38.5	38.5	77	31.9	0	1	270	0.00	30.271 
10:15	38.6	38.6	38.6	78	32.3	0	1	270	0.00	30.272 
10:20	38.6	38.6	38.6	75	31.4	0	1	270	0.00	30.274 
10:25	38.8	38.8	38.8	76	31.9	0	2	270	0.00	30.274 
10:30	38.8	38.8	38.8	73	30.9	1	2	270	0.00	30.275 
10:35	38.9	38.9	38.9	72	30.7	0	1	270	0.00	30.273 
10:40	39.2	39.2	39.2	72	30.9	0	1	270	0.00	30.273 
10:45	39.5	39.5	39.5	70	30.5	0	2	270	0.00	30.272 
10:50	40.1	40.1	40.1	70	31.1	0	2	270	0.00	30.271 
10:55	40.8	40.8	40.8	66	30.3	1	2	292	0.00	30.269 
11:00	41.1	41.1	41.1	66	30.6	0	2	292	0.00	30.269 
11:05	40.3	40.3	40.3	65	29.5	1	3	292	0.00	30.270 
11:10	39.9	39.9	39.9	64	28.7	0	2	292	0.00	30.272 
11:15	39.6	39.6	39.6	64	28.4	0	2	292	0.00	30.270 
11:20	39.9	39.9	39.9	65	29.1	0	2	292	0.00	30.269 
11:25	40.1	40.1	40.1	66	29.7	0	2	315	0.00	30.268 
11:30	40.2	40.2	40.2	64	29.0	1	2	315	0.00	30.267 
11:35	40.3	40.3	40.3	64	29.1	1	3	248	0.00	30.267 
11:40	40.5	40.5	40.5	64	29.3	1	2	225	0.00	30.265 
11:45	40.3	40.3	40.3	64	29.1	0	1	225	0.00	30.263 
11:50	40.5	40.5	40.5	65	29.7	0	2	158	0.00	30.261 
11:55	40.8	40.8	40.8	63	29.2	0	2	158	0.00	30.258 
12:00	40.8	40.8	40.8	62	28.8	0	2	315	0.00	30.255 
12:05	40.3	40.3	40.3	62	28.3	1	2	338	0.00	30.255 
12:10	40.2	40.2	40.2	62	28.2	0	2	338	0.00	30.254 
12:15	39.9	39.9	39.9	63	28.3	0	2	338	0.00	30.254 
12:20	39.9	39.9	39.9	61	27.6	1	3	292	0.00	30.254 
12:25	39.8	39.8	39.8	63	28.2	1	3	292	0.00	30.253 
12:30	39.9	39.9	39.9	63	28.3	1	3	248	0.00	30.251 
12:35	40.5	40.5	40.5	65	29.7	1	3	248	0.00	30.248 
12:40	41.1	41.1	41.1	62	29.1	1	4	225	0.00	30.242 
12:45	41.5	41.5	41.5	62	29.5	1	4	248	0.00	30.240 
12:50	41.6	41.6	41.6	61	29.2	2	5	248	0.00	30.237 
12:55	41.9	41.9	41.9	63	30.2	0	2	248	0.00	30.236 
13:00	41.9	41.9	41.9	60	29.0	1	4	248	0.00	30.234 
13:05	41.8	41.8	41.8	60	28.9	0	3	248	0.00	30.236 
13:10	42.1	42.1	42.1	58	28.4	0	3	248	0.00	30.234 
13:15	42.1	42.1	42.1	60	29.2	1	3	248	0.00	30.233 
13:20	42.1	42.1	42.1	60	29.2	1	3	248	0.00	30.233 
13:25	41.8	41.8	41.8	59	28.5	0	3	270	0.00	30.230 
13:30	41.6	41.6	41.6	57	27.5	1	2	270	0.00	30.230 
13:35	41.5	41.5	41.5	59	28.3	0	3	270	0.00	30.230 
13:40	41.2	41.2	41.2	60	28.4	1	2	248	0.00	30.229 
13:45	41.1	41.1	41.1	62	29.1	0	2	248	0.00	30.225 
13:50	40.9	40.9	40.9	61	28.5	0	3	248	0.00	30.223 
13:55	40.8	40.8	40.8	62	28.8	0	1	248	0.00	30.222 
14:00	40.8	40.8	40.8	62	28.8	0	2	248	0.00	30.221 
14:05	40.9	40.9	40.9	62	28.9	0	1	248	0.00	30.220 
14:10	41.1	41.1	41.1	62	29.1	1	4	248	0.00	30.219 
14:15	41.2	41.2	41.2	62	29.2	1	3	248	0.00	30.217 
14:20	41.6	41.6	41.6	62	29.6	0	1	248	0.00	30.216 
14:25	41.9	41.9	41.9	60	29.0	1	3	248	0.00	30.214 
14:30	41.8	41.8	41.8	60	28.9	1	2	248	0.00	30.210 
14:35	41.5	41.5	41.5	61	29.1	1	4	248	0.00	30.207 
14:40	41.5	41.5	41.5	62	29.5	0	2	248	0.00	30.206 
14:45	41.6	41.6	41.6	62	29.6	0	1	225	0.00	30.205 
14:50	41.3	41.3	41.3	61	28.9	1	2	225	0.00	30.204 
14:55	41.2	41.2	41.2	62	29.2	0	4	90	0.00	30.205 
15:00	41.2	41.2	41.2	62	29.2	0	2	90	0.00	30.205 
15:05	41.1	41.1	41.1	62	29.1	1	4	248	0.00	30.207 
15:10	41.1	41.1	41.1	63	29.5	0	1	248	0.00	30.207 
15:15	41.2	41.2	41.2	63	29.6	0	1	248	0.00	30.207 
15:20	41.3	41.3	41.3	62	29.3	0	2	248	0.00	30.206 
15:25	41.6	41.6	41.6	57	27.5	0	2	270	0.00	30.204 
15:30	41.9	41.9	41.9	56	27.4	0	2	248	0.00	30.204 
15:35	42.1	42.1	42.1	57	28.0	0	3	248	0.00	30.204 
15:40	42.2	42.2	42.2	55	27.2	0	2	248	0.00	30.203 
15:45	42.2	42.2	42.2	55	27.2	1	2	248	0.00	30.203 
15:50	42.2	42.2	42.2	54	26.8	1	4	248	0.00	30.205 
15:55	42.1	42.1	42.1	53	26.2	0	3	248	0.00	30.203 
16:00	42.2	42.2	42.2	54	26.8	0	4	248	0.00	30.197 
16:05	42.2	42.2	42.2	51	25.4	1	2	248	0.00	30.195 
16:10	42.2	42.2	42.2	51	25.4	1	5	248	0.00	30.193 
16:15	42.2	42.2	42.2	51	25.4	1	4	248	0.00	30.191 
16:20	42.1	42.1	42.1	50	24.8	1	4	248	0.00	30.191 
16:25	41.9	41.9	41.9	50	24.6	2	5	248	0.00	30.192 
16:30	41.8	41.8	41.8	51	25.0	1	3	248	0.00	30.191 
16:35	41.8	41.8	41.8	50	24.5	0	2	248	0.00	30.190 
16:40	41.9	41.9	41.9	51	25.1	0	2	248	0.00	30.190 
16:45	41.9	41.9	41.9	53	26.0	0	2	248	0.00	30.189 
16:50	41.9	41.9	41.9	51	25.1	0	3	248	0.00	30.186 
16:55	41.9	41.9	41.9	51	25.1	0	2	248	0.00	30.183 
17:00	41.9	41.9	41.9	53	26.0	0	1	248	0.00	30.178 
17:05	41.9	41.9	41.9	53	26.0	0	0	---	0.00	30.179 
17:10	41.8	41.8	41.8	51	25.0	0	2	248	0.00	30.178 
17:15	41.6	41.6	41.6	50	24.4	1	4	248	0.00	30.178 
17:20	41.3	41.3	41.3	50	24.1	1	3	225	0.00	30.177 
17:25	41.1	41.1	41.1	50	23.9	0	2	225	0.00	30.176 
17:30	40.8	40.8	40.8	52	24.6	0	4	248	0.00	30.176 
17:35	40.5	40.5	40.5	51	23.8	0	2	248	0.00	30.177 
17:40	40.3	40.3	40.3	50	23.2	1	4	248	0.00	30.178 
17:45	40.2	40.2	40.2	52	24.0	0	1	248	0.00	30.178 
17:50	39.9	39.9	39.9	52	23.7	0	2	248	0.00	30.177 
17:55	39.6	39.6	39.6	53	23.9	0	1	248	0.00	30.175 
18:00	39.2	39.2	39.2	54	24.0	0	2	248	0.00	30.174 
18:05	38.9	38.9	38.9	55	24.1	0	0	---	0.00	30.172 
18:10	38.5	38.5	38.5	55	23.8	0	0	---	0.00	30.172 
18:15	38.2	38.2	38.2	56	23.9	0	0	---	0.00	30.169 
18:20	37.8	37.8	37.8	56	23.5	0	0	---	0.00	30.172 
18:25	37.3	37.3	37.3	57	23.5	0	0	---	0.00	30.171 
18:30	36.9	36.9	36.9	57	23.1	0	0	---	0.00	30.173 
18:35	36.6	36.6	36.6	58	23.2	0	0	---	0.00	30.174 
18:40	36.2	36.2	36.2	59	23.3	0	0	---	0.00	30.174 
18:45	35.9	35.9	35.9	60	23.4	0	0	---	0.00	30.173 
18:50	35.5	35.5	35.5	61	23.4	0	0	---	0.00	30.170 
18:55	35.2	35.2	35.2	62	23.5	0	0	---	0.00	30.168 
19:00	34.9	34.9	34.9	62	23.2	0	0	---	0.00	30.166 
19:05	34.6	34.6	34.6	63	23.3	0	0	---	0.00	30.166 
19:10	34.4	34.4	34.4	63	23.1	0	0	---	0.00	30.166 
19:15	34.3	34.3	34.3	64	23.4	0	0	---	0.00	30.165 
19:20	34.0	34.0	34.0	65	23.5	0	0	---	0.00	30.165 
19:25	33.8	33.8	33.8	65	23.3	0	0	---	0.00	30.166 
19:30	33.7	33.7	33.7	65	23.2	0	0	---	0.00	30.165 
19:35	33.7	33.7	33.7	66	23.6	0	0	---	0.00	30.166 
19:40	33.7	33.7	33.7	66	23.6	0	0	---	0.00	30.166 
19:45	33.8	33.8	33.8	67	24.0	0	0	---	0.00	30.166 
19:50	34.0	34.0	34.0	68	24.6	0	0	---	0.00	30.165 
19:55	34.1	34.1	34.1	68	24.7	0	0	---	0.00	30.165 
20:00	34.1	34.1	34.1	67	24.3	0	0	---	0.00	30.164 
20:05	34.3	34.3	34.3	66	24.1	0	0	---	0.00	30.161 
20:10	34.4	34.4	34.4	66	24.2	0	1	248	0.00	30.162 
20:15	34.6	34.6	34.6	66	24.4	0	1	248	0.00	30.161 
20:20	34.7	34.7	34.7	66	24.5	0	0	---	0.00	30.158 
20:25	34.9	34.9	34.9	66	24.7	0	0	---	0.00	30.155 
20:30	34.9	34.9	34.9	65	24.3	0	0	---	0.00	30.156 
20:35	35.0	35.0	35.0	65	24.4	0	0	---	0.00	30.159 
20:40	35.0	35.0	35.0	65	24.4	0	0	---	0.00	30.156 
20:45	35.2	35.2	35.2	65	24.6	0	0	---	0.00	30.154 
20:50	35.3	35.3	35.3	65	24.7	0	0	---	0.00	30.152 
20:55	35.3	35.3	35.3	65	24.7	0	0	---	0.00	30.151 
21:00	35.2	35.2	35.2	66	25.0	0	0	---	0.00	30.151 
21:05	35.2	35.2	35.2	66	25.0	0	0	---	0.00	30.151 
21:10	35.0	35.0	35.0	67	25.2	0	0	---	0.00	30.151 
21:15	34.9	34.9	34.9	68	25.4	0	0	---	0.00	30.152 
21:20	34.7	34.7	34.7	69	25.6	0	0	---	0.00	30.150 
21:25	34.6	34.6	34.6	69	25.5	0	0	---	0.00	30.150 
21:30	34.4	34.4	34.4	69	25.3	0	0	---	0.00	30.149 
21:35	34.3	34.3	34.3	69	25.2	0	0	---	0.00	30.149 
21:40	34.4	34.4	34.4	69	25.3	0	1	248	0.00	30.148 
21:45	34.4	34.4	34.4	68	24.9	0	0	---	0.00	30.149 
21:50	34.6	34.6	34.6	68	25.1	0	0	---	0.00	30.149 
21:55	34.6	34.6	34.6	68	25.1	0	0	---	0.00	30.148 
22:00	34.6	34.6	34.6	68	25.1	0	0	---	0.00	30.148 
22:05	34.6	34.6	34.6	68	25.1	0	0	---	0.00	30.145 
22:10	34.6	34.6	34.6	68	25.1	0	0	---	0.00	30.144 
22:15	34.4	34.4	34.4	68	24.9	0	0	---	0.00	30.146 
22:20	34.4	34.4	34.4	68	24.9	0	0	---	0.00	30.145 
22:25	34.4	34.4	34.4	68	24.9	0	0	---	0.00	30.144 
22:30	34.4	34.4	34.4	68	24.9	0	0	---	0.00	30.144 
22:35	34.4	34.4	34.4	68	24.9	0	0	---	0.00	30.144 
22:40	34.4	34.4	34.4	68	24.9	0	0	---	0.00	30.143 
22:45	34.4	34.4	34.4	69	25.3	0	0	---	0.00	30.140 
22:50	34.4	34.4	34.4	69	25.3	0	0	---	0.00	30.142 
22:55	34.4	34.4	34.4	68	24.9	0	0	---	0.00	30.141 
23:00	34.4	34.4	34.4	69	25.3	0	0	---	0.00	30.141 
23:05	34.4	34.4	34.4	69	25.3	0	0	---	0.00	30.139 
23:10	34.4	34.4	34.4	69	25.3	0	0	---	0.00	30.137 
23:15	34.4	34.4	34.4	69	25.3	0	0	---	0.00	30.134 
23:20	34.4	34.4	34.4	68	24.9	0	0	---	0.00	30.131 
23:25	34.3	34.3	34.3	69	25.2	0	0	---	0.00	30.130 
23:30	34.3	34.3	34.3	69	25.2	0	0	---	0.00	30.127 
23:35	34.1	34.1	34.1	69	25.0	0	0	---	0.00	30.127 
23:40	34.1	34.1	34.1	70	25.4	0	0	---	0.00	30.126 
23:45	34.0	34.0	34.0	70	25.3	0	0	---	0.00	30.120 
23:50	34.0	34.0	34.0	69	24.9	0	0	---	0.00	30.117 
23:55	34.0	34.0	34.0	69	24.9	0	0	---	0.00	30.116 

CoCoRaHS
IN-AL-39
A2 Web Hosting
Creative Commons License
GoDaddy
Look for:

loaded 2017-12-12 07:24:07 • last modified 2010-11-18 10:43:29
Privacy PolicyDisclaimer
• wx.awcolley.com is powered by PmWiki v.2002016 •
• all content (unless otherwise noted) © 2017 A W Colley